sensor_id;sensor_type;location;lat;lon;timestamp;pressure;altitude;pressure_sealevel;temperature;humidity
69855;BME280;57146;48.140;16.304;2023-02-23T00:02:25;99167.66;;;5.29;86.15
69855;BME280;57146;48.140;16.304;2023-02-23T00:04:52;99167.44;;;5.26;85.75
69855;BME280;57146;48.140;16.304;2023-02-23T00:07:19;99163.78;;;5.22;86.43
69855;BME280;57146;48.140;16.304;2023-02-23T00:09:46;99164.84;;;5.21;86.31
69855;BME280;57146;48.140;16.304;2023-02-23T00:12:13;99163.03;;;5.16;86.56
69855;BME280;57146;48.140;16.304;2023-02-23T00:14:40;99166.19;;;5.13;86.46
69855;BME280;57146;48.140;16.304;2023-02-23T00:17:06;99165.66;;;5.11;86.76
69855;BME280;57146;48.140;16.304;2023-02-23T00:19:33;99161.72;;;5.09;86.88
69855;BME280;57146;48.140;16.304;2023-02-23T00:22:00;99165.16;;;4.94;86.95
69855;BME280;57146;48.140;16.304;2023-02-23T00:24:27;99160.19;;;4.97;87.10
69855;BME280;57146;48.140;16.304;2023-02-23T00:26:54;99165.97;;;4.79;88.29
69855;BME280;57146;48.140;16.304;2023-02-23T00:29:23;99161.28;;;4.86;89.10
69855;BME280;57146;48.140;16.304;2023-02-23T00:31:51;99157.59;;;4.97;88.79
69855;BME280;57146;48.140;16.304;2023-02-23T00:34:19;99157.91;;;4.86;88.88
69855;BME280;57146;48.140;16.304;2023-02-23T00:36:51;99155.78;;;4.93;89.60
69855;BME280;57146;48.140;16.304;2023-02-23T00:39:19;99153.97;;;4.93;89.50
69855;BME280;57146;48.140;16.304;2023-02-23T00:41:47;99154.72;;;4.94;90.02
69855;BME280;57146;48.140;16.304;2023-02-23T00:44:15;99155.50;;;4.99;90.14
69855;BME280;57146;48.140;16.304;2023-02-23T00:46:43;99150.53;;;5.03;90.38
69855;BME280;57146;48.140;16.304;2023-02-23T00:49:12;99153.97;;;4.98;89.47
69855;BME280;57146;48.140;16.304;2023-02-23T00:51:40;99155.50;;;5.04;89.63
69855;BME280;57146;48.140;16.304;2023-02-23T00:54:09;99158.09;;;5.10;89.65
69855;BME280;57146;48.140;16.304;2023-02-23T00:56:37;99159.94;;;5.09;88.32
69855;BME280;57146;48.140;16.304;2023-02-23T00:59:05;99155.50;;;5.04;88.76
69855;BME280;57146;48.140;16.304;2023-02-23T01:01:33;99162.31;;;4.95;89.08
69855;BME280;57146;48.140;16.304;2023-02-23T01:04:00;99158.38;;;4.98;89.38
69855;BME280;57146;48.140;16.304;2023-02-23T01:06:29;99150.78;;;5.01;88.95
69855;BME280;57146;48.140;16.304;2023-02-23T01:08:56;99153.94;;;5.03;88.88
69855;BME280;57146;48.140;16.304;2023-02-23T01:11:26;99155.75;;;4.98;89.16
69855;BME280;57146;48.140;16.304;2023-02-23T01:13:56;99145.34;;;4.93;89.60
69855;BME280;57146;48.140;16.304;2023-02-23T01:16:26;99151.38;;;4.83;89.51
69855;BME280;57146;48.140;16.304;2023-02-23T01:18:55;99150.28;;;4.94;90.09
69855;BME280;57146;48.140;16.304;2023-02-23T01:21:32;99152.94;;;4.89;89.84
69855;BME280;57146;48.140;16.304;2023-02-23T01:24:00;99146.66;;;4.95;90.22
69855;BME280;57146;48.140;16.304;2023-02-23T01:26:29;99143.00;;;4.96;89.28
69855;BME280;57146;48.140;16.304;2023-02-23T01:29:02;99140.38;;;4.96;89.70
69855;BME280;57146;48.140;16.304;2023-02-23T01:31:30;99143.53;;;4.93;88.84
69855;BME280;57146;48.140;16.304;2023-02-23T01:33:59;99143.56;;;4.88;89.48
69855;BME280;57146;48.140;16.304;2023-02-23T01:36:31;99142.53;;;4.84;89.72
69855;BME280;57146;48.140;16.304;2023-02-23T01:38:59;99135.97;;;4.92;91.82
69855;BME280;57146;48.140;16.304;2023-02-23T01:41:27;99133.88;;;4.94;nan
69855;BME280;57146;48.140;16.304;2023-02-23T01:44:04;99132.31;;;4.93;91.11
69855;BME280;57146;48.140;16.304;2023-02-23T01:46:36;99134.13;;;4.87;90.95
69855;BME280;57146;48.140;16.304;2023-02-23T01:49:05;99132.88;;;4.85;90.99
69855;BME280;57146;48.140;16.304;2023-02-23T01:51:37;99132.09;;;4.84;90.76
69855;BME280;57146;48.140;16.304;2023-02-23T01:56:40;99130.00;;;4.81;91.13
69855;BME280;57146;48.140;16.304;2023-02-23T01:59:11;99127.66;;;4.85;90.53
69855;BME280;57146;48.140;16.304;2023-02-23T02:01:40;99130.50;;;4.88;91.15
69855;BME280;57146;48.140;16.304;2023-02-23T02:04:09;99126.59;;;4.86;91.69
69855;BME280;57146;48.140;16.304;2023-02-23T02:06:37;99128.44;;;4.85;91.80
69855;BME280;57146;48.140;16.304;2023-02-23T02:09:10;99125.81;;;4.85;91.41
69855;BME280;57146;48.140;16.304;2023-02-23T02:11:39;99124.25;;;4.89;92.77
69855;BME280;57146;48.140;16.304;2023-02-23T02:14:13;99121.63;;;4.89;91.79
69855;BME280;57146;48.140;16.304;2023-02-23T02:16:51;99119.28;;;4.93;91.84
69855;BME280;57146;48.140;16.304;2023-02-23T02:27:53;99120.06;;;4.88;92.20
69855;BME280;57146;48.140;16.304;2023-02-23T02:47:50;99116.16;;;4.86;93.30
69855;BME280;57146;48.140;16.304;2023-02-23T02:53:00;99123.72;;;4.87;92.81
69855;BME280;57146;48.140;16.304;2023-02-23T02:55:31;99126.81;;;4.94;93.16
69855;BME280;57146;48.140;16.304;2023-02-23T02:58:01;99128.41;;;4.95;92.85
69855;BME280;57146;48.140;16.304;2023-02-23T03:00:37;99118.50;;;4.87;92.80
69855;BME280;57146;48.140;16.304;2023-02-23T03:03:05;99131.03;;;4.85;92.79
69855;BME280;57146;48.140;16.304;2023-02-23T03:11:04;99137.81;;;4.86;92.63
69855;BME280;57146;48.140;16.304;2023-02-23T03:13:40;99129.47;;;4.84;92.05
69855;BME280;57146;48.140;16.304;2023-02-23T03:16:28;99131.03;;;4.85;92.61
69855;BME280;57146;48.140;16.304;2023-02-23T03:24:41;99137.59;;;4.67;94.91
69855;BME280;57146;48.140;16.304;2023-02-23T03:27:28;99129.50;;;4.74;94.18
69855;BME280;57146;48.140;16.304;2023-02-23T03:30:42;99134.47;;;4.70;94.72
69855;BME280;57146;48.140;16.304;2023-02-23T03:33:54;99135.50;;;4.74;94.64
69855;BME280;57146;48.140;16.304;2023-02-23T03:36:26;99142.00;;;4.72;94.96
69855;BME280;57146;48.140;16.304;2023-02-23T03:39:45;99139.41;;;4.72;95.55
69855;BME280;57146;48.140;16.304;2023-02-23T03:41:49;99140.72;;;4.74;94.76
69855;BME280;57146;48.140;16.304;2023-02-23T03:44:25;99147.22;;;4.82;94.03
69855;BME280;57146;48.140;16.304;2023-02-23T03:46:57;99142.25;;;4.86;93.30
69855;BME280;57146;48.140;16.304;2023-02-23T03:49:28;99141.72;;;4.89;92.73
69855;BME280;57146;48.140;16.304;2023-02-23T03:52:07;99142.53;;;4.84;92.80
69855;BME280;57146;48.140;16.304;2023-02-23T03:54:43;99145.63;;;4.86;92.81
69855;BME280;57146;48.140;16.304;2023-02-23T03:57:14;99148.25;;;4.86;92.88
69855;BME280;57146;48.140;16.304;2023-02-23T03:59:52;99151.91;;;4.85;92.40
69855;BME280;57146;48.140;16.304;2023-02-23T04:02:25;99153.44;;;4.86;92.70
69855;BME280;57146;48.140;16.304;2023-02-23T04:04:56;99152.44;;;4.72;93.08
69855;BME280;57146;48.140;16.304;2023-02-23T04:07:25;99153.22;;;4.77;92.71
69855;BME280;57146;48.140;16.304;2023-02-23T04:09:52;99154.53;;;4.70;92.18
69855;BME280;57146;48.140;16.304;2023-02-23T04:12:20;99151.66;;;4.71;92.82
69855;BME280;57146;48.140;16.304;2023-02-23T04:14:56;99149.31;;;4.75;93.11
69855;BME280;57146;48.140;16.304;2023-02-23T04:17:28;99151.38;;;4.78;92.09
69855;BME280;57146;48.140;16.304;2023-02-23T04:20:20;99154.53;;;4.75;92.07
69855;BME280;57146;48.140;16.304;2023-02-23T04:22:47;99149.59;;;4.73;91.56
69855;BME280;57146;48.140;16.304;2023-02-23T04:25:15;99154.53;;;4.70;91.82
69855;BME280;57146;48.140;16.304;2023-02-23T04:27:43;99162.63;;;4.63;92.82
69855;BME280;57146;48.140;16.304;2023-02-23T04:30:10;99152.47;;;4.67;92.44
69855;BME280;57146;48.140;16.304;2023-02-23T04:32:37;99154.00;;;4.68;92.68
69855;BME280;57146;48.140;16.304;2023-02-23T04:35:05;99160.28;;;4.67;92.96
69855;BME280;57146;48.140;16.304;2023-02-23T04:37:32;99159.25;;;4.63;93.38
69855;BME280;57146;48.140;16.304;2023-02-23T04:39:59;99159.50;;;4.56;93.03
69855;BME280;57146;48.140;16.304;2023-02-23T04:42:26;99165.22;;;4.58;92.65
69855;BME280;57146;48.140;16.304;2023-02-23T04:44:52;99161.84;;;4.57;93.14
69855;BME280;57146;48.140;16.304;2023-02-23T04:47:19;99167.34;;;4.56;92.19
69855;BME280;57146;48.140;16.304;2023-02-23T04:49:46;99166.00;;;4.59;92.83
69855;BME280;57146;48.140;16.304;2023-02-23T04:52:13;99160.56;;;4.45;93.98
69855;BME280;57146;48.140;16.304;2023-02-23T04:54:40;99158.72;;;4.50;93.58
69855;BME280;57146;48.140;16.304;2023-02-23T04:57:08;99162.09;;;4.51;92.43
69855;BME280;57146;48.140;16.304;2023-02-23T04:59:35;99155.06;;;4.56;92.61
69855;BME280;57146;48.140;16.304;2023-02-23T05:02:04;99163.41;;;4.53;92.65
69855;BME280;57146;48.140;16.304;2023-02-23T05:04:32;99163.94;;;4.45;93.73
69855;BME280;57146;48.140;16.304;2023-02-23T05:07:00;99157.69;;;4.21;94.81
69855;BME280;57146;48.140;16.304;2023-02-23T05:09:28;99155.09;;;4.21;96.27
69855;BME280;57146;48.140;16.304;2023-02-23T05:11:56;99158.72;;;4.25;95.93
69855;BME280;57146;48.140;16.304;2023-02-23T05:14:25;99158.72;;;4.25;96.63
69855;BME280;57146;48.140;16.304;2023-02-23T05:16:52;99149.88;;;4.26;95.75
69855;BME280;57146;48.140;16.304;2023-02-23T05:19:19;99155.59;;;4.23;95.30
69855;BME280;57146;48.140;16.304;2023-02-23T05:21:46;99153.78;;;4.23;95.80
69855;BME280;57146;48.140;16.304;2023-02-23T05:24:13;99157.16;;;4.24;96.26
69855;BME280;57146;48.140;16.304;2023-02-23T05:26:40;99155.06;;;4.26;95.52
69855;BME280;57146;48.140;16.304;2023-02-23T05:29:32;99162.66;;;4.27;95.38
69855;BME280;57146;48.140;16.304;2023-02-23T05:31:59;99157.94;;;4.24;95.52
69855;BME280;57146;48.140;16.304;2023-02-23T05:34:27;99164.72;;;4.20;95.75
69855;BME280;57146;48.140;16.304;2023-02-23T05:36:54;99170.72;;;4.26;95.93
69855;BME280;57146;48.140;16.304;2023-02-23T05:39:22;99167.31;;;4.25;95.36
69855;BME280;57146;48.140;16.304;2023-02-23T05:42:14;99170.72;;;4.31;95.02
69855;BME280;57146;48.140;16.304;2023-02-23T05:45:06;99165.50;;;4.26;94.92
69855;BME280;57146;48.140;16.304;2023-02-23T05:47:37;99171.75;;;4.20;95.39
69855;BME280;57146;48.140;16.304;2023-02-23T05:50:05;99175.13;;;4.25;95.49
69855;BME280;57146;48.140;16.304;2023-02-23T05:52:38;99174.34;;;4.30;94.90
69855;BME280;57146;48.140;16.304;2023-02-23T05:55:06;99174.88;;;4.22;95.54
69855;BME280;57146;48.140;16.304;2023-02-23T05:57:34;99182.19;;;4.25;95.73
69855;BME280;57146;48.140;16.304;2023-02-23T06:00:04;99184.53;;;4.21;95.77
69855;BME280;57146;48.140;16.304;2023-02-23T06:02:56;99187.13;;;4.06;97.68
69855;BME280;57146;48.140;16.304;2023-02-23T06:05:23;99187.63;;;4.18;97.07
69855;BME280;57146;48.140;16.304;2023-02-23T06:07:51;99196.53;;;4.27;96.47
69855;BME280;57146;48.140;16.304;2023-02-23T06:10:18;99188.97;;;4.31;96.22
69855;BME280;57146;48.140;16.304;2023-02-23T06:12:45;99201.47;;;4.29;96.51
69855;BME280;57146;48.140;16.304;2023-02-23T06:15:12;99198.34;;;4.32;96.82
69855;BME280;57146;48.140;16.304;2023-02-23T06:17:39;99203.53;;;4.37;96.15
69855;BME280;57146;48.140;16.304;2023-02-23T06:20:07;99203.28;;;4.33;96.97
69855;BME280;57146;48.140;16.304;2023-02-23T06:22:34;99213.97;;;4.37;96.53
69855;BME280;57146;48.140;16.304;2023-02-23T06:25:00;99210.34;;;4.38;97.22
69855;BME280;57146;48.140;16.304;2023-02-23T06:27:27;99211.63;;;4.41;97.27
69855;BME280;57146;48.140;16.304;2023-02-23T06:29:54;99216.84;;;4.41;96.75
69855;BME280;57146;48.140;16.304;2023-02-23T06:32:21;99213.72;;;4.44;97.61
69855;BME280;57146;48.140;16.304;2023-02-23T06:34:50;99223.91;;;4.45;96.25
69855;BME280;57146;48.140;16.304;2023-02-23T06:37:18;99218.69;;;4.50;96.04
69855;BME280;57146;48.140;16.304;2023-02-23T06:39:46;99220.50;;;4.50;95.63
69855;BME280;57146;48.140;16.304;2023-02-23T06:42:13;99227.03;;;4.52;96.05
69855;BME280;57146;48.140;16.304;2023-02-23T06:44:41;99224.41;;;4.52;94.47
69855;BME280;57146;48.140;16.304;2023-02-23T06:47:08;99220.75;;;4.53;95.29
69855;BME280;57146;48.140;16.304;2023-02-23T06:50:00;99226.50;;;4.55;96.17
69855;BME280;57146;48.140;16.304;2023-02-23T06:52:28;99223.91;;;4.55;95.29
69855;BME280;57146;48.140;16.304;2023-02-23T06:54:55;99229.88;;;4.61;94.70
69855;BME280;57146;48.140;16.304;2023-02-23T06:57:22;99230.66;;;4.62;95.44
69855;BME280;57146;48.140;16.304;2023-02-23T06:59:49;99233.81;;;4.64;95.60
69855;BME280;57146;48.140;16.304;2023-02-23T07:02:16;99237.47;;;4.63;95.68
69855;BME280;57146;48.140;16.304;2023-02-23T07:04:43;99231.69;;;4.66;95.32
69855;BME280;57146;48.140;16.304;2023-02-23T07:07:10;99244.50;;;4.67;95.47
69855;BME280;57146;48.140;16.304;2023-02-23T07:09:41;99240.56;;;4.75;95.02
69855;BME280;57146;48.140;16.304;2023-02-23T07:12:33;99236.66;;;4.83;95.82
69855;BME280;57146;48.140;16.304;2023-02-23T07:15:00;99239.28;;;4.88;95.78
69855;BME280;57146;48.140;16.304;2023-02-23T07:17:52;99240.81;;;4.94;96.04
69855;BME280;57146;48.140;16.304;2023-02-23T07:20:21;99239.00;;;4.99;95.48
69855;BME280;57146;48.140;16.304;2023-02-23T07:22:47;99238.72;;;5.06;95.82
69855;BME280;57146;48.140;16.304;2023-02-23T07:25:15;99248.63;;;5.14;95.05
69855;BME280;57146;48.140;16.304;2023-02-23T07:27:42;99247.31;;;5.17;94.98
69855;BME280;57146;48.140;16.304;2023-02-23T07:30:10;99248.59;;;5.19;94.85
69855;BME280;57146;48.140;16.304;2023-02-23T07:32:40;99246.28;;;5.23;94.65
69855;BME280;57146;48.140;16.304;2023-02-23T07:35:08;99244.16;;;5.25;94.68
69855;BME280;57146;48.140;16.304;2023-02-23T07:37:35;99242.88;;;5.27;94.71
69855;BME280;57146;48.140;16.304;2023-02-23T07:40:04;99242.06;;;5.32;94.39
69855;BME280;57146;48.140;16.304;2023-02-23T07:42:30;99246.75;;;5.35;94.65
69855;BME280;57146;48.140;16.304;2023-02-23T07:45:03;99250.66;;;5.43;93.38
69855;BME280;57146;48.140;16.304;2023-02-23T07:47:30;99245.16;;;5.49;94.40
69855;BME280;57146;48.140;16.304;2023-02-23T07:50:01;99248.78;;;5.53;93.73
69855;BME280;57146;48.140;16.304;2023-02-23T07:52:30;99251.88;;;5.61;94.00
69855;BME280;57146;48.140;16.304;2023-02-23T07:54:56;99252.38;;;5.68;93.68
69855;BME280;57146;48.140;16.304;2023-02-23T07:57:23;99249.78;;;5.73;93.32
69855;BME280;57146;48.140;16.304;2023-02-23T07:59:50;99256.50;;;5.79;92.72
69855;BME280;57146;48.140;16.304;2023-02-23T08:02:17;99251.28;;;5.84;92.76
69855;BME280;57146;48.140;16.304;2023-02-23T08:04:48;99258.53;;;5.97;92.72
69855;BME280;57146;48.140;16.304;2023-02-23T08:07:20;99260.09;;;6.09;91.73
69855;BME280;57146;48.140;16.304;2023-02-23T08:09:47;99262.34;;;6.20;91.62
69855;BME280;57146;48.140;16.304;2023-02-23T08:12:15;99260.19;;;6.33;90.60
69855;BME280;57146;48.140;16.304;2023-02-23T08:14:42;99261.41;;;6.45;90.59
69855;BME280;57146;48.140;16.304;2023-02-23T08:17:10;99263.44;;;6.54;90.66
69855;BME280;57146;48.140;16.304;2023-02-23T08:19:37;99260.81;;;6.59;89.20
69855;BME280;57146;48.140;16.304;2023-02-23T08:22:04;99256.34;;;6.59;88.61
69855;BME280;57146;48.140;16.304;2023-02-23T08:25:00;99258.69;;;6.61;88.05
69855;BME280;57146;48.140;16.304;2023-02-23T08:27:27;99256.59;;;6.58;87.78
69855;BME280;57146;48.140;16.304;2023-02-23T08:30:20;99269.69;;;6.58;87.99
69855;BME280;57146;48.140;16.304;2023-02-23T08:32:48;99263.69;;;6.57;88.29
69855;BME280;57146;48.140;16.304;2023-02-23T08:35:16;99273.66;;;6.55;88.07
69855;BME280;57146;48.140;16.304;2023-02-23T08:37:43;99278.09;;;6.55;88.07
69855;BME280;57146;48.140;16.304;2023-02-23T08:40:11;99276.22;;;6.60;88.48
69855;BME280;57146;48.140;16.304;2023-02-23T08:42:38;99266.03;;;6.59;87.49
69855;BME280;57146;48.140;16.304;2023-02-23T08:45:05;99265.72;;;6.65;87.38
69855;BME280;57146;48.140;16.304;2023-02-23T08:47:36;99273.22;;;6.77;87.29
69855;BME280;57146;48.140;16.304;2023-02-23T08:50:04;99279.47;;;6.81;86.99
69855;BME280;57146;48.140;16.304;2023-02-23T08:52:31;99276.91;;;6.76;86.30
69855;BME280;57146;48.140;16.304;2023-02-23T08:54:59;99273.22;;;6.77;86.74
69855;BME280;57146;48.140;16.304;2023-02-23T08:57:27;99278.91;;;6.84;86.57
69855;BME280;57146;48.140;16.304;2023-02-23T08:59:54;99269.22;;;6.85;86.71
69855;BME280;57146;48.140;16.304;2023-02-23T09:02:21;99275.53;;;6.84;86.28
69855;BME280;57146;48.140;16.304;2023-02-23T09:04:48;99272.25;;;6.97;86.93
69855;BME280;57146;48.140;16.304;2023-02-23T09:07:20;99278.19;;;7.08;86.25
69855;BME280;57146;48.140;16.304;2023-02-23T09:09:57;99276.69;;;7.02;85.86
69855;BME280;57146;48.140;16.304;2023-02-23T09:12:24;99283.47;;;7.03;85.64
69855;BME280;57146;48.140;16.304;2023-02-23T09:14:52;99275.63;;;7.03;85.98
69855;BME280;57146;48.140;16.304;2023-02-23T09:17:20;99278.19;;;7.08;85.74
69855;BME280;57146;48.140;16.304;2023-02-23T09:19:48;99276.00;;;7.15;85.79
69855;BME280;57146;48.140;16.304;2023-02-23T09:22:40;99280.94;;;7.22;85.55
69855;BME280;57146;48.140;16.304;2023-02-23T09:25:09;99280.91;;;7.27;85.71
69855;BME280;57146;48.140;16.304;2023-02-23T09:27:36;99276.38;;;7.32;85.40
69855;BME280;57146;48.140;16.304;2023-02-23T09:30:04;99285.50;;;7.40;85.23
69855;BME280;57146;48.140;16.304;2023-02-23T09:32:32;99278.44;;;7.35;84.61
69855;BME280;57146;48.140;16.304;2023-02-23T09:34:59;99278.97;;;7.37;84.62
69855;BME280;57146;48.140;16.304;2023-02-23T09:37:26;99279.66;;;7.43;85.01
69855;BME280;57146;48.140;16.304;2023-02-23T09:39:53;99275.78;;;7.40;84.54
69855;BME280;57146;48.140;16.304;2023-02-23T09:45:30;99284.59;;;7.50;84.49
69855;BME280;57146;48.140;16.304;2023-02-23T09:48:15;99278.09;;;7.47;84.73
69855;BME280;57146;48.140;16.304;2023-02-23T09:50:49;99277.16;;;7.57;84.84
69855;BME280;57146;48.140;16.304;2023-02-23T09:55:55;99279.69;;;7.67;84.26
69855;BME280;57146;48.140;16.304;2023-02-23T09:58:48;99276.94;;;7.77;83.95
69855;BME280;57146;48.140;16.304;2023-02-23T10:04:23;99277.31;;;7.89;83.82
69855;BME280;57146;48.140;16.304;2023-02-23T10:07:13;99271.50;;;7.92;83.72
69855;BME280;57146;48.140;16.304;2023-02-23T10:09:55;99281.09;;;8.02;84.07
69855;BME280;57146;48.140;16.304;2023-02-23T10:17:48;99267.56;;;8.14;83.14
69855;BME280;57146;48.140;16.304;2023-02-23T10:20:33;99269.84;;;8.21;82.44
69855;BME280;57146;48.140;16.304;2023-02-23T10:23:07;99264.22;;;8.27;82.31
69855;BME280;57146;48.140;16.304;2023-02-23T10:25:41;99262.28;;;8.38;81.97
69855;BME280;57146;48.140;16.304;2023-02-23T10:28:16;99256.69;;;8.45;81.23
69855;BME280;57146;48.140;16.304;2023-02-23T10:30:51;99262.03;;;8.53;81.44
69855;BME280;57146;48.140;16.304;2023-02-23T10:33:46;99259.06;;;8.60;81.10
69855;BME280;57146;48.140;16.304;2023-02-23T10:36:17;99261.88;;;8.63;81.31
69855;BME280;57146;48.140;16.304;2023-02-23T10:38:45;99267.91;;;8.64;80.34
69855;BME280;57146;48.140;16.304;2023-02-23T10:41:13;99264.16;;;8.70;80.43
69855;BME280;57146;48.140;16.304;2023-02-23T10:43:46;99259.09;;;8.74;81.02
69855;BME280;57146;48.140;16.304;2023-02-23T10:46:21;99259.00;;;8.65;80.19
69855;BME280;57146;48.140;16.304;2023-02-23T10:49:19;99256.69;;;8.77;80.72
69855;BME280;57146;48.140;16.304;2023-02-23T10:51:49;99241.66;;;8.83;80.52
69855;BME280;57146;48.140;16.304;2023-02-23T10:54:35;99243.66;;;8.72;80.44
69855;BME280;57146;48.140;16.304;2023-02-23T10:57:04;99233.94;;;8.73;79.86
69855;BME280;57146;48.140;16.304;2023-02-23T10:59:36;99236.25;;;8.74;80.58
69855;BME280;57146;48.140;16.304;2023-02-23T11:02:20;99232.09;;;8.73;80.66
69855;BME280;57146;48.140;16.304;2023-02-23T11:04:58;99234.41;;;8.75;80.07
69855;BME280;57146;48.140;16.304;2023-02-23T11:07:30;99237.91;;;8.70;80.21
69855;BME280;57146;48.140;16.304;2023-02-23T11:10:24;99237.91;;;8.70;80.18
69855;BME280;57146;48.140;16.304;2023-02-23T11:12:51;99232.88;;;8.74;80.79
69855;BME280;57146;48.140;16.304;2023-02-23T11:15:44;99230.06;;;8.84;80.77
69855;BME280;57146;48.140;16.304;2023-02-23T11:18:24;99222.09;;;8.89;80.68
69855;BME280;57146;48.140;16.304;2023-02-23T11:20:52;99220.38;;;8.98;81.12
69855;BME280;57146;48.140;16.304;2023-02-23T11:23:26;99216.50;;;9.23;79.26
69855;BME280;57146;48.140;16.304;2023-02-23T11:25:58;99210.94;;;9.39;79.28
69855;BME280;57146;48.140;16.304;2023-02-23T11:28:54;99198.31;;;9.41;77.94
69855;BME280;57146;48.140;16.304;2023-02-23T11:31:50;99199.19;;;9.50;78.48
69855;BME280;57146;48.140;16.304;2023-02-23T11:34:27;99200.81;;;9.46;78.38
69855;BME280;57146;48.140;16.304;2023-02-23T11:37:05;99197.44;;;9.45;77.92
69855;BME280;57146;48.140;16.304;2023-02-23T11:39:34;99201.81;;;9.50;78.35
69855;BME280;57146;48.140;16.304;2023-02-23T11:42:17;99198.69;;;9.62;78.56
69855;BME280;57146;48.140;16.304;2023-02-23T11:45:15;99191.38;;;9.72;77.53
69855;BME280;57146;48.140;16.304;2023-02-23T11:47:45;99187.66;;;9.73;77.53
69855;BME280;57146;48.140;16.304;2023-02-23T11:50:31;99192.44;;;9.71;76.93
69855;BME280;57146;48.140;16.304;2023-02-23T11:53:10;99184.66;;;9.66;76.80
69855;BME280;57146;48.140;16.304;2023-02-23T11:55:48;99190.69;;;9.67;76.73
69855;BME280;57146;48.140;16.304;2023-02-23T11:58:24;99181.25;;;9.66;76.74
69855;BME280;57146;48.140;16.304;2023-02-23T12:00:58;99170.44;;;9.67;76.98
69855;BME280;57146;48.140;16.304;2023-02-23T12:03:31;99177.91;;;9.74;76.95
69855;BME280;57146;48.140;16.304;2023-02-23T12:06:01;99170.03;;;9.74;76.57
69855;BME280;57146;48.140;16.304;2023-02-23T12:08:32;99166.22;;;9.80;77.25
69855;BME280;57146;48.140;16.304;2023-02-23T12:11:04;99168.53;;;9.81;77.17
69855;BME280;57146;48.140;16.304;2023-02-23T12:13:49;99168.03;;;9.93;77.78
69855;BME280;57146;48.140;16.304;2023-02-23T12:16:48;99172.34;;;9.89;76.27
69855;BME280;57146;48.140;16.304;2023-02-23T12:19:26;99168.03;;;9.93;75.86
69855;BME280;57146;48.140;16.304;2023-02-23T12:22:01;99170.44;;;10.03;76.38
69855;BME280;57146;48.140;16.304;2023-02-23T12:24:51;99170.00;;;10.10;76.60
69855;BME280;57146;48.140;16.304;2023-02-23T12:30:15;99163.47;;;10.21;75.96
69855;BME280;57146;48.140;16.304;2023-02-23T12:33:33;99156.94;;;10.19;75.94
69855;BME280;57146;48.140;16.304;2023-02-23T12:38:56;99146.97;;;10.29;75.64
69855;BME280;57146;48.140;16.304;2023-02-23T12:41:35;99146.38;;;10.33;75.28
69855;BME280;57146;48.140;16.304;2023-02-23T12:47:08;99136.91;;;10.54;74.24
69855;BME280;57146;48.140;16.304;2023-02-23T12:49:57;99134.56;;;10.52;73.95
69855;BME280;57146;48.140;16.304;2023-02-23T12:52:35;99133.97;;;10.55;73.49
69855;BME280;57146;48.140;16.304;2023-02-23T12:55:08;99126.66;;;10.52;73.68
69855;BME280;57146;48.140;16.304;2023-02-23T12:58:01;99126.06;;;10.55;73.48
69855;BME280;57146;48.140;16.304;2023-02-23T13:00:45;99121.47;;;10.61;73.81
69855;BME280;57146;48.140;16.304;2023-02-23T13:11:05;99117.72;;;10.53;73.22
69855;BME280;57146;48.140;16.304;2023-02-23T13:13:42;99116.31;;;10.56;72.07
69855;BME280;57146;48.140;16.304;2023-02-23T13:16:39;99121.22;;;10.49;72.58
69855;BME280;57146;48.140;16.304;2023-02-23T13:22:23;99112.88;;;10.47;71.64
69855;BME280;57146;48.140;16.304;2023-02-23T13:24:57;99115.34;;;10.43;72.27
69855;BME280;57146;48.140;16.304;2023-02-23T13:27:39;99111.94;;;10.43;72.01
69855;BME280;57146;48.140;16.304;2023-02-23T13:30:10;99116.22;;;10.39;71.77
69855;BME280;57146;48.140;16.304;2023-02-23T13:32:37;99113.28;;;10.40;72.04
69855;BME280;57146;48.140;16.304;2023-02-23T13:35:09;99115.94;;;10.40;72.83
69855;BME280;57146;48.140;16.304;2023-02-23T13:37:58;99117.47;;;10.41;72.34
69855;BME280;57146;48.140;16.304;2023-02-23T13:40:30;99118.56;;;10.40;72.19
69855;BME280;57146;48.140;16.304;2023-02-23T13:49:00;99116.13;;;10.52;72.02
69855;BME280;57146;48.140;16.304;2023-02-23T13:51:42;99107.94;;;10.54;72.45
69855;BME280;57146;48.140;16.304;2023-02-23T13:59:21;99104.56;;;10.62;72.24
69855;BME280;57146;48.140;16.304;2023-02-23T14:01:50;99105.50;;;10.66;72.26
69855;BME280;57146;48.140;16.304;2023-02-23T14:04:28;99093.94;;;10.76;71.63
69855;BME280;57146;48.140;16.304;2023-02-23T14:07:03;99107.63;;;10.87;70.75
69855;BME280;57146;48.140;16.304;2023-02-23T14:09:46;99095.38;;;10.91;71.74
69855;BME280;57146;48.140;16.304;2023-02-23T14:12:23;99100.84;;;11.03;71.51
69855;BME280;57146;48.140;16.304;2023-02-23T14:14:50;99099.31;;;11.11;70.45
69855;BME280;57146;48.140;16.304;2023-02-23T14:25:51;99089.44;;;11.25;70.44
69855;BME280;57146;48.140;16.304;2023-02-23T14:41:57;99088.00;;;11.10;71.07
69855;BME280;57146;48.140;16.304;2023-02-23T14:44:30;99083.66;;;11.06;70.78
69855;BME280;57146;48.140;16.304;2023-02-23T14:47:05;99078.25;;;11.11;70.37
69855;BME280;57146;48.140;16.304;2023-02-23T14:49:36;99075.91;;;11.09;70.38
69855;BME280;57146;48.140;16.304;2023-02-23T14:52:07;99074.34;;;11.08;70.69
69855;BME280;57146;48.140;16.304;2023-02-23T14:54:37;99072.38;;;11.14;70.10
69855;BME280;57146;48.140;16.304;2023-02-23T14:57:13;99075.94;;;11.18;69.50
69855;BME280;57146;48.140;16.304;2023-02-23T15:02:37;99069.09;;;11.17;70.88
69855;BME280;57146;48.140;16.304;2023-02-23T15:05:23;99070.50;;;11.14;70.45
69855;BME280;57146;48.140;16.304;2023-02-23T15:07:51;99072.22;;;11.10;71.20
69855;BME280;57146;48.140;16.304;2023-02-23T15:10:35;99064.44;;;11.05;71.21
69855;BME280;57146;48.140;16.304;2023-02-23T15:13:16;99060.09;;;11.00;71.10
69855;BME280;57146;48.140;16.304;2023-02-23T15:15:48;99062.25;;;10.98;71.81
69855;BME280;57146;48.140;16.304;2023-02-23T15:21:41;99061.78;;;10.96;71.19
69855;BME280;57146;48.140;16.304;2023-02-23T15:24:10;99050.00;;;10.94;70.92